sensor_id;sensor_type;location;lat;lon;timestamp;pressure;altitude;pressure_sealevel;temperature;humidity
77526;BME280;66627;29.424;-98.496;2023-07-09T00:00:15;98352.98;;;38.59;21.55
77526;BME280;66627;29.424;-98.496;2023-07-09T00:02:41;98354.42;;;38.96;21.60
77526;BME280;66627;29.424;-98.496;2023-07-09T00:05:01;98352.98;;;38.65;21.44
77526;BME280;66627;29.424;-98.496;2023-07-09T00:07:30;98351.28;;;38.47;21.31
77526;BME280;66627;29.424;-98.496;2023-07-09T00:09:53;98351.73;;;38.92;21.61
77526;BME280;66627;29.424;-98.496;2023-07-09T00:12:19;98348.62;;;39.34;21.93
77526;BME280;66627;29.424;-98.496;2023-07-09T00:14:43;98353.13;;;39.13;21.24
77526;BME280;66627;29.424;-98.496;2023-07-09T00:17:10;98353.41;;;38.75;21.77
77526;BME280;66627;29.424;-98.496;2023-07-09T00:19:33;98351.07;;;38.59;22.23
77526;BME280;66627;29.424;-98.496;2023-07-09T00:21:58;98352.82;;;38.71;22.01
77526;BME280;66627;29.424;-98.496;2023-07-09T00:24:28;98348.78;;;38.12;22.24
77526;BME280;66627;29.424;-98.496;2023-07-09T00:26:50;98347.55;;;37.97;22.39
77526;BME280;66627;29.424;-98.496;2023-07-09T00:31:39;98347.62;;;37.84;21.37
77526;BME280;66627;29.424;-98.496;2023-07-09T00:34:04;98344.31;;;37.34;21.65
77526;BME280;66627;29.424;-98.496;2023-07-09T00:36:30;98343.57;;;37.63;21.53
77526;BME280;66627;29.424;-98.496;2023-07-09T00:38:55;98345.42;;;36.76;21.98
77526;BME280;66627;29.424;-98.496;2023-07-09T00:41:21;98345.01;;;36.96;22.84
77526;BME280;66627;29.424;-98.496;2023-07-09T00:43:46;98347.29;;;37.34;22.15
77526;BME280;66627;29.424;-98.496;2023-07-09T00:46:16;98347.59;;;36.43;23.21
77526;BME280;66627;29.424;-98.496;2023-07-09T00:48:35;98345.98;;;38.01;22.24
77526;BME280;66627;29.424;-98.496;2023-07-09T00:51:00;98345.66;;;35.86;23.51
77526;BME280;66627;29.424;-98.496;2023-07-09T00:53:29;98348.39;;;35.58;24.26
77526;BME280;66627;29.424;-98.496;2023-07-09T00:55:55;98345.16;;;36.61;24.02
77526;BME280;66627;29.424;-98.496;2023-07-09T00:58:16;98344.44;;;36.54;24.08
77526;BME280;66627;29.424;-98.496;2023-07-09T01:00:44;98344.98;;;36.28;23.79
77526;BME280;66627;29.424;-98.496;2023-07-09T01:03:07;98342.87;;;36.65;23.59
77526;BME280;66627;29.424;-98.496;2023-07-09T01:05:32;98343.03;;;37.22;23.72
77526;BME280;66627;29.424;-98.496;2023-07-09T01:07:57;98343.70;;;36.42;24.00
77526;BME280;66627;29.424;-98.496;2023-07-09T01:10:22;98344.82;;;36.61;23.44
77526;BME280;66627;29.424;-98.496;2023-07-09T01:12:48;98348.14;;;36.61;23.33
77526;BME280;66627;29.424;-98.496;2023-07-09T01:15:13;98349.20;;;36.90;23.49
77526;BME280;66627;29.424;-98.496;2023-07-09T01:17:38;98350.01;;;36.13;23.94
77526;BME280;66627;29.424;-98.496;2023-07-09T01:20:08;98349.44;;;36.48;23.84
77526;BME280;66627;29.424;-98.496;2023-07-09T01:22:29;98350.21;;;36.46;24.22
77526;BME280;66627;29.424;-98.496;2023-07-09T01:24:58;98349.29;;;36.10;24.85
77526;BME280;66627;29.424;-98.496;2023-07-09T01:27:24;98348.39;;;35.59;25.28
77526;BME280;66627;29.424;-98.496;2023-07-09T01:29:46;98349.65;;;36.21;26.54
77526;BME280;66627;29.424;-98.496;2023-07-09T01:32:13;98346.28;;;35.67;25.29
77526;BME280;66627;29.424;-98.496;2023-07-09T01:34:37;98345.19;;;35.81;25.73
77526;BME280;66627;29.424;-98.496;2023-07-09T01:37:02;98348.51;;;35.18;25.99
77526;BME280;66627;29.424;-98.496;2023-07-09T01:39:28;98352.64;;;35.05;27.05
77526;BME280;66627;29.424;-98.496;2023-07-09T01:41:53;98356.61;;;35.49;27.44
77526;BME280;66627;29.424;-98.496;2023-07-09T01:44:18;98358.93;;;35.32;29.56
77526;BME280;66627;29.424;-98.496;2023-07-09T01:46:43;98363.52;;;34.94;30.80
77526;BME280;66627;29.424;-98.496;2023-07-09T01:49:08;98368.94;;;34.86;31.27
77526;BME280;66627;29.424;-98.496;2023-07-09T01:51:34;98369.53;;;35.01;31.42
77526;BME280;66627;29.424;-98.496;2023-07-09T01:53:58;98376.36;;;34.84;32.32
77526;BME280;66627;29.424;-98.496;2023-07-09T01:56:23;98374.49;;;34.29;32.92
77526;BME280;66627;29.424;-98.496;2023-07-09T01:58:49;98377.62;;;34.17;33.45
77526;BME280;66627;29.424;-98.496;2023-07-09T02:01:14;98383.36;;;34.21;33.26
77526;BME280;66627;29.424;-98.496;2023-07-09T02:03:39;98384.97;;;33.58;34.32
77526;BME280;66627;29.424;-98.496;2023-07-09T02:06:04;98387.12;;;34.54;33.28
77526;BME280;66627;29.424;-98.496;2023-07-09T02:08:30;98394.10;;;33.63;34.80
77526;BME280;66627;29.424;-98.496;2023-07-09T02:10:55;98395.75;;;34.02;34.90
77526;BME280;66627;29.424;-98.496;2023-07-09T02:13:21;98405.84;;;33.92;34.95
77526;BME280;66627;29.424;-98.496;2023-07-09T02:15:46;98413.83;;;33.76;35.30
77526;BME280;66627;29.424;-98.496;2023-07-09T02:18:11;98421.06;;;34.19;34.89
77526;BME280;66627;29.424;-98.496;2023-07-09T02:20:36;98422.81;;;34.14;35.37
77526;BME280;66627;29.424;-98.496;2023-07-09T02:23:01;98430.10;;;33.29;35.97
77526;BME280;66627;29.424;-98.496;2023-07-09T02:25:26;98434.05;;;33.47;36.25
77526;BME280;66627;29.424;-98.496;2023-07-09T02:27:52;98429.19;;;33.06;36.26
77526;BME280;66627;29.424;-98.496;2023-07-09T02:30:17;98434.23;;;33.37;36.47
77526;BME280;66627;29.424;-98.496;2023-07-09T02:32:41;98435.56;;;33.38;36.51
77526;BME280;66627;29.424;-98.496;2023-07-09T02:35:07;98437.55;;;33.14;36.45
77526;BME280;66627;29.424;-98.496;2023-07-09T02:37:32;98438.15;;;32.40;37.50
77526;BME280;66627;29.424;-98.496;2023-07-09T02:39:58;98435.29;;;32.64;37.56
77526;BME280;66627;29.424;-98.496;2023-07-09T02:42:23;98443.63;;;32.59;37.78
77526;BME280;66627;29.424;-98.496;2023-07-09T02:44:48;98449.86;;;32.78;37.91
77526;BME280;66627;29.424;-98.496;2023-07-09T02:47:14;98453.56;;;32.24;38.25
77526;BME280;66627;29.424;-98.496;2023-07-09T02:49:39;98456.53;;;32.95;37.73
77526;BME280;66627;29.424;-98.496;2023-07-09T02:52:05;98458.69;;;32.51;38.06
77526;BME280;66627;29.424;-98.496;2023-07-09T02:54:29;98458.79;;;32.36;38.37
77526;BME280;66627;29.424;-98.496;2023-07-09T02:56:54;98461.52;;;32.35;38.44
77526;BME280;66627;29.424;-98.496;2023-07-09T02:59:20;98465.52;;;32.18;38.74
77526;BME280;66627;29.424;-98.496;2023-07-09T03:01:45;98471.90;;;31.89;39.48
77526;BME280;66627;29.424;-98.496;2023-07-09T03:04:10;98476.73;;;32.02;39.10
77526;BME280;66627;29.424;-98.496;2023-07-09T03:06:36;98478.45;;;32.38;39.10
77526;BME280;66627;29.424;-98.496;2023-07-09T03:09:01;98483.50;;;31.97;39.25
77526;BME280;66627;29.424;-98.496;2023-07-09T03:11:27;98490.70;;;32.02;39.33
77526;BME280;66627;29.424;-98.496;2023-07-09T03:13:51;98492.81;;;31.96;39.26
77526;BME280;66627;29.424;-98.496;2023-07-09T03:16:16;98499.04;;;31.47;39.66
77526;BME280;66627;29.424;-98.496;2023-07-09T03:18:41;98504.20;;;31.73;39.80
77526;BME280;66627;29.424;-98.496;2023-07-09T03:21:06;98513.23;;;31.59;39.37
77526;BME280;66627;29.424;-98.496;2023-07-09T03:23:32;98519.68;;;31.83;39.79
77526;BME280;66627;29.424;-98.496;2023-07-09T03:25:58;98526.08;;;31.58;39.49
77526;BME280;66627;29.424;-98.496;2023-07-09T03:28:23;98529.95;;;31.43;39.31
77526;BME280;66627;29.424;-98.496;2023-07-09T03:30:48;98535.93;;;32.49;38.77
77526;BME280;66627;29.424;-98.496;2023-07-09T03:33:14;98539.30;;;31.52;39.82
77526;BME280;66627;29.424;-98.496;2023-07-09T03:35:38;98548.46;;;31.65;39.70
77526;BME280;66627;29.424;-98.496;2023-07-09T03:38:04;98553.53;;;30.70;40.91
77526;BME280;66627;29.424;-98.496;2023-07-09T03:40:28;98550.49;;;31.35;40.11
77526;BME280;66627;29.424;-98.496;2023-07-09T03:42:53;98555.98;;;31.65;40.05
77526;BME280;66627;29.424;-98.496;2023-07-09T03:45:19;98556.33;;;31.66;39.73
77526;BME280;66627;29.424;-98.496;2023-07-09T03:47:44;98561.63;;;31.84;39.85
77526;BME280;66627;29.424;-98.496;2023-07-09T03:50:10;98564.27;;;31.33;40.06
77526;BME280;66627;29.424;-98.496;2023-07-09T03:52:34;98567.25;;;30.72;41.30
77526;BME280;66627;29.424;-98.496;2023-07-09T03:54:59;98571.02;;;31.11;40.80
77526;BME280;66627;29.424;-98.496;2023-07-09T03:57:24;98577.60;;;30.52;41.36
77526;BME280;66627;29.424;-98.496;2023-07-09T03:59:49;98580.35;;;31.16;40.85
77526;BME280;66627;29.424;-98.496;2023-07-09T04:02:14;98583.19;;;31.12;40.94
77526;BME280;66627;29.424;-98.496;2023-07-09T04:04:40;98588.32;;;31.06;40.98
77526;BME280;66627;29.424;-98.496;2023-07-09T04:07:05;98591.54;;;31.07;40.68
77526;BME280;66627;29.424;-98.496;2023-07-09T04:09:30;98587.20;;;31.73;40.05
77526;BME280;66627;29.424;-98.496;2023-07-09T04:11:56;98588.81;;;31.15;40.90
77526;BME280;66627;29.424;-98.496;2023-07-09T04:14:21;98588.98;;;31.04;41.41
77526;BME280;66627;29.424;-98.496;2023-07-09T04:16:47;98591.92;;;30.81;41.55
77526;BME280;66627;29.424;-98.496;2023-07-09T04:19:12;98592.01;;;30.92;41.27
77526;BME280;66627;29.424;-98.496;2023-07-09T04:21:37;98589.91;;;31.52;40.56
77526;BME280;66627;29.424;-98.496;2023-07-09T04:24:02;98592.94;;;30.99;41.38
77526;BME280;66627;29.424;-98.496;2023-07-09T04:26:27;98594.57;;;31.19;41.12
77526;BME280;66627;29.424;-98.496;2023-07-09T04:28:52;98598.99;;;30.72;41.75
77526;BME280;66627;29.424;-98.496;2023-07-09T04:31:17;98608.32;;;31.12;41.63
77526;BME280;66627;29.424;-98.496;2023-07-09T04:33:43;98607.65;;;30.93;41.63
77526;BME280;66627;29.424;-98.496;2023-07-09T04:36:08;98615.60;;;30.94;42.27
77526;BME280;66627;29.424;-98.496;2023-07-09T04:38:33;98616.13;;;30.55;42.24
77526;BME280;66627;29.424;-98.496;2023-07-09T04:40:59;98615.78;;;31.18;41.66
77526;BME280;66627;29.424;-98.496;2023-07-09T04:43:24;98615.60;;;30.88;41.79
77526;BME280;66627;29.424;-98.496;2023-07-09T04:45:49;98619.37;;;30.70;42.36
77526;BME280;66627;29.424;-98.496;2023-07-09T04:48:14;98620.24;;;30.87;42.20
77526;BME280;66627;29.424;-98.496;2023-07-09T04:50:39;98623.55;;;30.55;42.53
77526;BME280;66627;29.424;-98.496;2023-07-09T04:53:04;98630.74;;;30.73;42.85
77526;BME280;66627;29.424;-98.496;2023-07-09T04:55:29;98631.83;;;30.19;42.78
77526;BME280;66627;29.424;-98.496;2023-07-09T04:57:55;98634.36;;;30.36;42.85
77526;BME280;66627;29.424;-98.496;2023-07-09T05:00:20;98629.03;;;30.15;43.60
77526;BME280;66627;29.424;-98.496;2023-07-09T05:02:45;98626.40;;;30.76;42.91
77526;BME280;66627;29.424;-98.496;2023-07-09T05:05:11;98632.91;;;30.51;43.22
77526;BME280;66627;29.424;-98.496;2023-07-09T05:07:35;98628.42;;;30.38;43.46
77526;BME280;66627;29.424;-98.496;2023-07-09T05:10:01;98631.49;;;30.35;43.63
77526;BME280;66627;29.424;-98.496;2023-07-09T05:12:26;98632.57;;;30.06;44.12
77526;BME280;66627;29.424;-98.496;2023-07-09T05:14:51;98636.39;;;30.05;44.36
77526;BME280;66627;29.424;-98.496;2023-07-09T05:17:16;98636.09;;;30.08;44.48
77526;BME280;66627;29.424;-98.496;2023-07-09T05:19:41;98637.75;;;30.28;44.15
77526;BME280;66627;29.424;-98.496;2023-07-09T05:22:06;98635.85;;;30.38;43.83
77526;BME280;66627;29.424;-98.496;2023-07-09T05:24:31;98633.64;;;29.61;45.17
77526;BME280;66627;29.424;-98.496;2023-07-09T05:26:56;98636.60;;;29.85;44.83
77526;BME280;66627;29.424;-98.496;2023-07-09T05:29:22;98637.27;;;30.01;44.74
77526;BME280;66627;29.424;-98.496;2023-07-09T05:31:47;98639.32;;;29.67;44.96
77526;BME280;66627;29.424;-98.496;2023-07-09T05:34:12;98643.53;;;30.11;45.48
77526;BME280;66627;29.424;-98.496;2023-07-09T05:36:37;98644.56;;;29.88;44.71
77526;BME280;66627;29.424;-98.496;2023-07-09T05:39:03;98648.87;;;29.65;44.84
77526;BME280;66627;29.424;-98.496;2023-07-09T05:41:28;98648.84;;;29.80;45.25
77526;BME280;66627;29.424;-98.496;2023-07-09T05:43:53;98651.11;;;29.62;45.28
77526;BME280;66627;29.424;-98.496;2023-07-09T05:46:21;98653.28;;;29.83;44.97
77526;BME280;66627;29.424;-98.496;2023-07-09T05:48:43;98648.66;;;30.13;44.48
77526;BME280;66627;29.424;-98.496;2023-07-09T05:51:09;98646.75;;;29.16;45.42
77526;BME280;66627;29.424;-98.496;2023-07-09T05:53:33;98650.10;;;30.28;44.14
77526;BME280;66627;29.424;-98.496;2023-07-09T05:55:59;98648.56;;;29.75;44.93
77526;BME280;66627;29.424;-98.496;2023-07-09T05:58:24;98650.69;;;29.55;45.12
77526;BME280;66627;29.424;-98.496;2023-07-09T06:00:51;98651.87;;;29.67;45.02
77526;BME280;66627;29.424;-98.496;2023-07-09T06:03:15;98651.42;;;29.69;45.06
77526;BME280;66627;29.424;-98.496;2023-07-09T06:05:42;98648.02;;;29.48;45.15
77526;BME280;66627;29.424;-98.496;2023-07-09T06:08:05;98651.58;;;29.50;45.28
77526;BME280;66627;29.424;-98.496;2023-07-09T06:10:30;98657.26;;;30.12;44.14
77526;BME280;66627;29.424;-98.496;2023-07-09T06:12:55;98658.66;;;29.19;45.60
77526;BME280;66627;29.424;-98.496;2023-07-09T06:15:20;98665.80;;;29.24;45.49
77526;BME280;66627;29.424;-98.496;2023-07-09T06:17:46;98669.86;;;29.90;44.52
77526;BME280;66627;29.424;-98.496;2023-07-09T06:20:11;98672.40;;;30.21;44.57
77526;BME280;66627;29.424;-98.496;2023-07-09T06:22:36;98673.06;;;30.07;44.26
77526;BME280;66627;29.424;-98.496;2023-07-09T06:25:02;98670.03;;;29.32;45.38
77526;BME280;66627;29.424;-98.496;2023-07-09T06:27:27;98666.35;;;29.36;45.64
77526;BME280;66627;29.424;-98.496;2023-07-09T06:29:52;98659.31;;;29.71;45.88
77526;BME280;66627;29.424;-98.496;2023-07-09T06:32:18;98662.02;;;29.40;46.58
77526;BME280;66627;29.424;-98.496;2023-07-09T06:34:43;98659.54;;;29.67;46.20
77526;BME280;66627;29.424;-98.496;2023-07-09T06:37:08;98665.56;;;29.46;46.54
77526;BME280;66627;29.424;-98.496;2023-07-09T06:39:33;98665.13;;;28.99;46.92
77526;BME280;66627;29.424;-98.496;2023-07-09T06:41:59;98667.24;;;29.10;47.51
77526;BME280;66627;29.424;-98.496;2023-07-09T06:44:24;98667.72;;;29.01;47.57
77526;BME280;66627;29.424;-98.496;2023-07-09T06:46:49;98667.70;;;28.64;48.33
77526;BME280;66627;29.424;-98.496;2023-07-09T06:49:14;98671.20;;;29.11;47.56
77526;BME280;66627;29.424;-98.496;2023-07-09T06:51:39;98672.19;;;28.97;47.98
77526;BME280;66627;29.424;-98.496;2023-07-09T06:54:04;98671.22;;;29.02;47.72
77526;BME280;66627;29.424;-98.496;2023-07-09T06:56:31;98671.10;;;28.99;47.82
77526;BME280;66627;29.424;-98.496;2023-07-09T06:58:54;98666.77;;;29.52;46.88
77526;BME280;66627;29.424;-98.496;2023-07-09T07:01:19;98666.03;;;29.31;47.18
77526;BME280;66627;29.424;-98.496;2023-07-09T07:03:45;98660.82;;;29.33;47.31
77526;BME280;66627;29.424;-98.496;2023-07-09T07:06:11;98663.30;;;29.09;47.84
77526;BME280;66627;29.424;-98.496;2023-07-09T07:08:35;98663.56;;;28.66;49.02
77526;BME280;66627;29.424;-98.496;2023-07-09T07:11:02;98665.51;;;29.33;48.08
77526;BME280;66627;29.424;-98.496;2023-07-09T07:13:25;98662.93;;;29.26;47.80
77526;BME280;66627;29.424;-98.496;2023-07-09T07:15:50;98660.31;;;29.25;47.80
77526;BME280;66627;29.424;-98.496;2023-07-09T07:18:16;98661.05;;;29.36;47.64
77526;BME280;66627;29.424;-98.496;2023-07-09T07:20:41;98657.41;;;29.05;48.59
77526;BME280;66627;29.424;-98.496;2023-07-09T07:23:06;98655.71;;;28.59;49.43
77526;BME280;66627;29.424;-98.496;2023-07-09T07:25:32;98654.21;;;28.62;49.31
77526;BME280;66627;29.424;-98.496;2023-07-09T07:27:56;98657.06;;;29.18;48.76
77526;BME280;66627;29.424;-98.496;2023-07-09T07:30:21;98651.55;;;28.41;50.32
77526;BME280;66627;29.424;-98.496;2023-07-09T07:32:48;98652.38;;;28.97;48.86
77526;BME280;66627;29.424;-98.496;2023-07-09T07:35:13;98654.12;;;28.79;49.54
77526;BME280;66627;29.424;-98.496;2023-07-09T07:37:38;98658.50;;;29.04;48.84
77526;BME280;66627;29.424;-98.496;2023-07-09T07:40:02;98660.36;;;29.13;48.49
77526;BME280;66627;29.424;-98.496;2023-07-09T07:42:28;98661.37;;;28.35;50.48
77526;BME280;66627;29.424;-98.496;2023-07-09T07:44:52;98665.54;;;28.83;49.63
77526;BME280;66627;29.424;-98.496;2023-07-09T07:47:18;98667.34;;;27.96;51.33
77526;BME280;66627;29.424;-98.496;2023-07-09T07:49:43;98666.38;;;28.33;50.58
77526;BME280;66627;29.424;-98.496;2023-07-09T07:52:08;98664.01;;;29.12;49.15
77526;BME280;66627;29.424;-98.496;2023-07-09T07:54:33;98662.43;;;28.70;50.42
77526;BME280;66627;29.424;-98.496;2023-07-09T07:56:58;98662.58;;;28.43;51.00
77526;BME280;66627;29.424;-98.496;2023-07-09T07:59:23;98660.20;;;28.34;50.81
77526;BME280;66627;29.424;-98.496;2023-07-09T08:01:49;98658.75;;;28.45;50.68
77526;BME280;66627;29.424;-98.496;2023-07-09T08:04:13;98656.83;;;28.52;51.02
77526;BME280;66627;29.424;-98.496;2023-07-09T08:06:39;98653.43;;;28.81;49.92
77526;BME280;66627;29.424;-98.496;2023-07-09T08:09:04;98648.63;;;28.52;51.00
77526;BME280;66627;29.424;-98.496;2023-07-09T08:11:29;98646.20;;;28.35;51.48
77526;BME280;66627;29.424;-98.496;2023-07-09T08:13:55;98639.36;;;27.88;51.68
77526;BME280;66627;29.424;-98.496;2023-07-09T08:16:19;98639.69;;;28.34;51.36
77526;BME280;66627;29.424;-98.496;2023-07-09T08:18:46;98641.05;;;28.02;51.94
77526;BME280;66627;29.424;-98.496;2023-07-09T08:21:11;98643.30;;;28.10;51.86
77526;BME280;66627;29.424;-98.496;2023-07-09T08:23:35;98637.70;;;28.68;50.85
77526;BME280;66627;29.424;-98.496;2023-07-09T08:26:02;98634.19;;;27.65;52.73
77526;BME280;66627;29.424;-98.496;2023-07-09T08:28:26;98633.14;;;28.16;51.88
77526;BME280;66627;29.424;-98.496;2023-07-09T08:30:53;98628.63;;;28.43;51.28
77526;BME280;66627;29.424;-98.496;2023-07-09T08:33:16;98620.63;;;28.31;51.11
77526;BME280;66627;29.424;-98.496;2023-07-09T08:35:43;98617.92;;;28.71;50.47
77526;BME280;66627;29.424;-98.496;2023-07-09T08:38:06;98617.76;;;27.92;51.70
77526;BME280;66627;29.424;-98.496;2023-07-09T08:40:32;98620.31;;;28.84;50.50
77526;BME280;66627;29.424;-98.496;2023-07-09T08:43:01;98625.09;;;27.54;52.58
77526;BME280;66627;29.424;-98.496;2023-07-09T08:45:33;98622.58;;;28.25;51.80
77526;BME280;66627;29.424;-98.496;2023-07-09T08:47:55;98621.80;;;28.61;51.14
77526;BME280;66627;29.424;-98.496;2023-07-09T08:50:16;98620.13;;;28.01;52.31
77526;BME280;66627;29.424;-98.496;2023-07-09T08:52:39;98612.25;;;27.58;53.16
77526;BME280;66627;29.424;-98.496;2023-07-09T08:55:06;98607.92;;;27.14;54.02
77526;BME280;66627;29.424;-98.496;2023-07-09T08:57:32;98608.81;;;28.02;52.44
77526;BME280;66627;29.424;-98.496;2023-07-09T08:59:59;98607.29;;;27.23;53.92
77526;BME280;66627;29.424;-98.496;2023-07-09T09:02:27;98605.81;;;27.02;54.08
77526;BME280;66627;29.424;-98.496;2023-07-09T09:04:43;98606.43;;;27.61;53.36
77526;BME280;66627;29.424;-98.496;2023-07-09T09:07:13;98611.54;;;27.78;52.62
77526;BME280;66627;29.424;-98.496;2023-07-09T09:09:38;98615.49;;;28.31;52.00
77526;BME280;66627;29.424;-98.496;2023-07-09T09:12:03;98618.70;;;27.10;54.65
77526;BME280;66627;29.424;-98.496;2023-07-09T09:14:29;98618.95;;;27.49;54.25
77526;BME280;66627;29.424;-98.496;2023-07-09T09:16:50;98625.79;;;28.05;52.62
77526;BME280;66627;29.424;-98.496;2023-07-09T09:19:20;98625.29;;;26.90;55.45
77526;BME280;66627;29.424;-98.496;2023-07-09T09:21:39;98622.59;;;27.02;55.07
77526;BME280;66627;29.424;-98.496;2023-07-09T09:24:13;98618.01;;;27.37;54.03
77526;BME280;66627;29.424;-98.496;2023-07-09T09:26:32;98617.04;;;27.01;54.78
77526;BME280;66627;29.424;-98.496;2023-07-09T09:28:56;98612.44;;;27.13;55.28
77526;BME280;66627;29.424;-98.496;2023-07-09T09:31:21;98614.02;;;26.94;55.56
77526;BME280;66627;29.424;-98.496;2023-07-09T09:33:48;98614.92;;;26.72;55.52
77526;BME280;66627;29.424;-98.496;2023-07-09T09:36:17;98612.83;;;27.35;54.30
77526;BME280;66627;29.424;-98.496;2023-07-09T09:38:36;98613.61;;;26.82;56.40
77526;BME280;66627;29.424;-98.496;2023-07-09T09:41:01;98617.62;;;25.96;57.38
77526;BME280;66627;29.424;-98.496;2023-07-09T09:43:32;98609.01;;;27.19;55.77
77526;BME280;66627;29.424;-98.496;2023-07-09T09:45:52;98605.27;;;26.88;55.95
77526;BME280;66627;29.424;-98.496;2023-07-09T09:48:19;98601.30;;;27.33;54.53
77526;BME280;66627;29.424;-98.496;2023-07-09T09:50:42;98598.94;;;27.89;54.49
77526;BME280;66627;29.424;-98.496;2023-07-09T09:53:13;98599.32;;;26.67;56.11
77526;BME280;66627;29.424;-98.496;2023-07-09T09:55:33;98603.05;;;27.36;55.60
77526;BME280;66627;29.424;-98.496;2023-07-09T09:57:58;98602.36;;;26.98;56.10
77526;BME280;66627;29.424;-98.496;2023-07-09T10:00:26;98605.67;;;27.66;54.61
77526;BME280;66627;29.424;-98.496;2023-07-09T10:02:49;98607.57;;;27.01;55.98
77526;BME280;66627;29.424;-98.496;2023-07-09T10:05:15;98604.60;;;27.56;54.87
77526;BME280;66627;29.424;-98.496;2023-07-09T10:07:44;98601.25;;;27.70;54.97
77526;BME280;66627;29.424;-98.496;2023-07-09T10:10:09;98598.78;;;27.33;55.41
77526;BME280;66627;29.424;-98.496;2023-07-09T10:12:38;98599.85;;;27.85;54.25
77526;BME280;66627;29.424;-98.496;2023-07-09T10:14:58;98599.40;;;26.92;56.09
77526;BME280;66627;29.424;-98.496;2023-07-09T10:17:24;98599.64;;;26.99;55.71
77526;BME280;66627;29.424;-98.496;2023-07-09T10:19:52;98595.09;;;27.44;55.85
77526;BME280;66627;29.424;-98.496;2023-07-09T10:22:16;98598.97;;;26.02;58.29
77526;BME280;66627;29.424;-98.496;2023-07-09T10:24:45;98590.33;;;26.67;57.20
77526;BME280;66627;29.424;-98.496;2023-07-09T10:27:08;98592.55;;;26.69;57.54
77526;BME280;66627;29.424;-98.496;2023-07-09T10:29:36;98595.00;;;26.89;57.36
77526;BME280;66627;29.424;-98.496;2023-07-09T10:31:58;98600.80;;;27.43;56.06
77526;BME280;66627;29.424;-98.496;2023-07-09T10:34:27;98607.03;;;26.81;56.47
77526;BME280;66627;29.424;-98.496;2023-07-09T10:36:57;98616.50;;;25.44;59.45
77526;BME280;66627;29.424;-98.496;2023-07-09T10:39:10;98615.66;;;26.64;58.14
77526;BME280;66627;29.424;-98.496;2023-07-09T10:41:35;98622.30;;;26.27;58.68
77526;BME280;66627;29.424;-98.496;2023-07-09T10:44:00;98624.84;;;26.40;58.20
77526;BME280;66627;29.424;-98.496;2023-07-09T10:46:26;98626.23;;;26.21;58.96
77526;BME280;66627;29.424;-98.496;2023-07-09T10:48:51;98624.23;;;26.86;57.57
77526;BME280;66627;29.424;-98.496;2023-07-09T10:51:21;98622.37;;;26.75;57.79
77526;BME280;66627;29.424;-98.496;2023-07-09T10:53:44;98622.80;;;27.57;56.04
77526;BME280;66627;29.424;-98.496;2023-07-09T10:56:09;98617.67;;;26.68;57.37
77526;BME280;66627;29.424;-98.496;2023-07-09T10:58:36;98621.13;;;27.34;56.63
77526;BME280;66627;29.424;-98.496;2023-07-09T11:00:55;98621.88;;;27.51;56.34
77526;BME280;66627;29.424;-98.496;2023-07-09T11:03:24;98621.79;;;27.64;55.74
77526;BME280;66627;29.424;-98.496;2023-07-09T11:05:45;98628.77;;;27.33;56.06
77526;BME280;66627;29.424;-98.496;2023-07-09T11:08:14;98637.46;;;27.28;56.31
77526;BME280;66627;29.424;-98.496;2023-07-09T11:10:38;98651.02;;;26.41;59.02
77526;BME280;66627;29.424;-98.496;2023-07-09T11:13:03;98656.71;;;25.91;58.78
77526;BME280;66627;29.424;-98.496;2023-07-09T11:15:31;98653.36;;;26.19;58.56
77526;BME280;66627;29.424;-98.496;2023-07-09T11:17:51;98647.38;;;26.96;57.81
77526;BME280;66627;29.424;-98.496;2023-07-09T11:20:19;98643.57;;;27.53;56.72
77526;BME280;66627;29.424;-98.496;2023-07-09T11:22:50;98642.39;;;27.28;57.14
77526;BME280;66627;29.424;-98.496;2023-07-09T11:25:10;98647.87;;;26.02;59.45
77526;BME280;66627;29.424;-98.496;2023-07-09T11:27:34;98648.72;;;26.97;57.55
77526;BME280;66627;29.424;-98.496;2023-07-09T11:30:00;98659.36;;;26.61;58.79
77526;BME280;66627;29.424;-98.496;2023-07-09T11:32:25;98658.99;;;26.64;58.91
77526;BME280;66627;29.424;-98.496;2023-07-09T11:34:50;98651.61;;;27.07;58.01
77526;BME280;66627;29.424;-98.496;2023-07-09T11:37:15;98648.68;;;27.02;56.89
77526;BME280;66627;29.424;-98.496;2023-07-09T11:39:45;98647.41;;;26.96;58.24
77526;BME280;66627;29.424;-98.496;2023-07-09T11:44:31;98662.81;;;26.40;59.76
77526;BME280;66627;29.424;-98.496;2023-07-09T11:47:08;98659.47;;;26.97;58.44
77526;BME280;66627;29.424;-98.496;2023-07-09T11:49:23;98662.63;;;26.60;58.64
77526;BME280;66627;29.424;-98.496;2023-07-09T11:51:50;98665.54;;;27.03;58.52
77526;BME280;66627;29.424;-98.496;2023-07-09T11:54:12;98666.67;;;26.84;58.70
77526;BME280;66627;29.424;-98.496;2023-07-09T11:56:37;98666.61;;;26.94;57.97
77526;BME280;66627;29.424;-98.496;2023-07-09T11:59:02;98675.61;;;26.36;59.92
77526;BME280;66627;29.424;-98.496;2023-07-09T12:01:33;98679.75;;;26.55;59.79
77526;BME280;66627;29.424;-98.496;2023-07-09T12:03:53;98678.63;;;26.22;60.30
77526;BME280;66627;29.424;-98.496;2023-07-09T12:06:21;98667.48;;;27.07;58.65
77526;BME280;66627;29.424;-98.496;2023-07-09T12:08:46;98674.71;;;26.43;60.18
77526;BME280;66627;29.424;-98.496;2023-07-09T12:11:18;98673.49;;;26.56;59.90
77526;BME280;66627;29.424;-98.496;2023-07-09T12:13:38;98676.81;;;26.68;59.39
77526;BME280;66627;29.424;-98.496;2023-07-09T12:16:02;98688.17;;;26.68;59.89
77526;BME280;66627;29.424;-98.496;2023-07-09T12:18:25;98689.19;;;26.61;59.51
77526;BME280;66627;29.424;-98.496;2023-07-09T12:20:53;98687.79;;;27.03;58.56
77526;BME280;66627;29.424;-98.496;2023-07-09T12:23:31;98692.66;;;26.88;59.35
77526;BME280;66627;29.424;-98.496;2023-07-09T12:25:47;98696.38;;;26.51;59.74
77526;BME280;66627;29.424;-98.496;2023-07-09T12:28:13;98700.20;;;26.55;59.55
77526;BME280;66627;29.424;-98.496;2023-07-09T12:30:33;98710.05;;;25.89;61.04
77526;BME280;66627;29.424;-98.496;2023-07-09T12:32:58;98716.79;;;25.41;62.17